Time;durP1;ratioP1;P1;durP2;ratioP2;P2;SDS_P1;SDS_P2;PMS_P1;PMS_P2;Temp;Humidity;BMP_temperature;BMP_pressure;BME280_temperature;BME280_humidity;BME280_pressure;Samples;Min_cycle;Max_cycle;Signal;HPM_P1;HPM_P2
2022/09/25 00:03:01;;;;;;;6.73;6.23;;;;;;;20.60;37.78;95391.28;6165476;28;104218;-79
2022/09/25 00:06:08;;;;;;;6.87;6.37;;;;;;;20.59;37.75;95395.81;6164364;28;102988;-80
2022/09/25 00:09:13;;;;;;;6.90;6.30;;;;;;;20.57;38.01;95382.03;6158580;28;103548;-79
2022/09/25 00:12:16;;;;;;;7.00;6.50;;;;;;;20.55;37.86;95384.19;6164759;28;105365;-80
2022/09/25 00:15:19;;;;;;;6.77;6.27;;;;;;;20.57;38.07;95391.88;6164228;28;103219;-80
2022/09/25 00:21:43;;;;;;;8.50;7.10;;;;;;;20.54;38.17;95389.78;6157819;28;103269;-79
2022/09/25 00:24:46;;;;;;;6.43;5.93;;;;;;;20.55;38.12;95391.38;6164912;28;104175;-80
2022/09/25 00:27:53;;;;;;;6.90;6.37;;;;;;;20.53;38.22;95383.69;6164954;28;103801;-80
2022/09/25 00:30:56;;;;;;;7.07;6.57;;;;;;;20.54;38.06;95384.47;6164556;28;103198;-80
2022/09/25 00:34:01;;;;;;;6.60;6.10;;;;;;;20.54;37.84;95373.84;6158217;28;106148;-80
2022/09/25 00:37:07;;;;;;;6.30;5.80;;;;;;;20.54;38.09;95377.28;6164300;28;105334;-79
2022/09/25 00:40:11;;;;;;;7.23;6.63;;;;;;;20.52;38.25;95378.66;6164453;28;103525;-79
2022/09/25 00:43:15;;;;;;;7.07;6.47;;;;;;;20.51;38.40;95369.91;6158804;28;103418;-80
2022/09/25 00:46:22;;;;;;;6.40;5.90;;;;;;;20.52;38.17;95365.38;6163095;28;103466;-80
2022/09/25 00:49:26;;;;;;;6.53;6.03;;;;;;;20.52;37.90;95360.06;6164204;28;103078;-79
2022/09/25 00:52:32;;;;;;;6.40;5.90;;;;;;;20.53;38.04;95366.94;6163263;28;103391;-79
2022/09/25 00:55:38;;;;;;;6.13;5.70;;;;;;;20.52;38.17;95368.03;6157344;28;103407;-79
2022/09/25 00:58:42;;;;;;;7.13;6.50;;;;;;;20.50;37.94;95357.69;6164629;28;104591;-80
2022/09/25 01:01:47;;;;;;;5.87;5.47;;;;;;;20.51;38.03;95366.44;6164158;28;104699;-79
2022/09/25 01:04:51;;;;;;;6.33;5.93;;;;;;;20.50;38.03;95365.66;6164197;28;103583;-79
2022/09/25 01:07:58;;;;;;;6.70;6.20;;;;;;;20.50;37.93;95376.28;6157787;28;104203;-79
2022/09/25 01:11:01;;;;;;;6.70;6.10;;;;;;;20.50;37.92;95370.97;6164021;28;103201;-80
2022/09/25 01:14:07;;;;;;;6.50;6.00;;;;;;;20.48;38.05;95362.47;6164079;28;103545;-80
2022/09/25 01:17:20;;;;;;;6.03;5.63;;;;;;;20.47;38.07;95358.22;6159997;28;103313;-79
2022/09/25 01:20:49;;;;;;;6.50;5.90;;;;;;;20.48;37.91;95354.50;6163504;28;104132;-81
2022/09/25 01:24:19;;;;;;;5.70;5.30;;;;;;;20.46;38.18;95361.19;6162855;28;103567;-80
2022/09/25 01:27:44;;;;;;;6.50;6.00;;;;;;;20.45;38.08;95359.59;6164105;28;106460;-79
2022/09/25 01:30:58;;;;;;;6.57;6.10;;;;;;;20.45;38.10;95349.75;6158561;28;107952;-80
2022/09/25 01:34:09;;;;;;;6.33;5.83;;;;;;;20.43;37.88;95349.25;6164161;28;102972;-80
2022/09/25 01:37:22;;;;;;;5.97;5.57;;;;;;;20.45;37.91;95359.59;6163884;28;106259;-79
2022/09/25 01:40:32;;;;;;;6.33;5.83;;;;;;;20.45;37.91;95359.59;6157131;28;103363;-80
2022/09/25 01:43:39;;;;;;;6.03;5.63;;;;;;;20.45;38.02;95367.56;6163012;28;103501;-80
2022/09/25 01:46:47;;;;;;;5.87;5.30;;;;;;;20.45;37.94;95362.25;6163521;28;103293;-82
2022/09/25 01:49:55;;;;;;;6.50;6.00;;;;;;;20.37;37.78;95361.03;6163453;28;105667;-80
2022/09/25 01:53:04;;;;;;;6.30;5.80;;;;;;;20.43;38.03;95373.19;6156503;28;104116;-80
2022/09/25 01:56:13;;;;;;;5.27;4.87;;;;;;;20.42;38.12;95379.56;6162016;28;107468;-80
2022/09/25 01:59:21;;;;;;;5.90;5.40;;;;;;;20.39;37.98;95369.53;6165643;28;104206;-79
2022/09/25 02:02:37;;;;;;;5.67;5.27;;;;;;;20.42;37.95;95360.19;6163372;28;103417;-79
2022/09/25 02:05:46;;;;;;;5.77;5.37;;;;;;;20.40;37.98;95367.66;6164232;28;103344;-78
2022/09/25 02:08:53;;;;;;;5.80;5.40;;;;;;;20.39;38.01;95368.72;6167424;28;104248;-81
2022/09/25 02:12:03;;;;;;;5.30;4.90;;;;;;;20.40;38.04;95357.81;6166793;28;103217;-80
2022/09/25 02:15:10;;;;;;;5.57;5.20;;;;;;;20.39;37.87;95350.91;6159868;28;104068;-79
2022/09/25 02:21:45;;;;;;;5.73;5.33;;;;;;;20.39;37.86;95366.06;6166970;28;105763;-81
2022/09/25 02:24:53;;;;;;;5.83;5.43;;;;;;;20.39;38.04;95358.88;6164043;28;104899;-79
2022/09/25 02:28:02;;;;;;;6.33;5.83;;;;;;;20.38;37.88;95361.84;6161823;28;103154;-79
2022/09/25 02:31:10;;;;;;;5.90;5.40;;;;;;;20.39;38.02;95368.72;6166642;28;103135;-79
2022/09/25 02:34:15;;;;;;;5.90;5.50;;;;;;;20.37;38.15;95376.22;6166787;28;103763;-79
2022/09/25 02:37:19;;;;;;;6.27;5.70;;;;;;;20.37;37.90;95378.88;6158994;28;105056;-79
2022/09/25 02:40:29;;;;;;;5.50;5.10;;;;;;;20.36;38.09;95374.63;6166821;28;103599;-79
2022/09/25 02:43:42;;;;;;;5.33;5.00;;;;;;;20.35;37.88;95362.41;6166315;28;103659;-79
2022/09/25 02:46:58;;;;;;;6.07;5.67;;;;;;;20.38;38.07;95364.50;6166031;28;103132;-79
2022/09/25 02:50:09;;;;;;;5.37;4.97;;;;;;;20.36;37.94;95348.84;6161275;28;103367;-80
2022/09/25 02:53:18;;;;;;;5.53;5.13;;;;;;;20.37;37.95;95346.97;6166484;28;103973;-79
2022/09/25 02:56:30;;;;;;;5.53;5.03;;;;;;;20.34;38.17;95358.19;6166195;28;103361;-81
2022/09/25 02:59:38;;;;;;;5.47;5.07;;;;;;;20.33;38.02;95373.31;6159461;28;104159;-79
2022/09/25 03:02:42;;;;;;;6.20;5.70;;;;;;;20.33;38.02;95360.00;6165304;28;103406;-81
2022/09/25 03:05:57;;;;;;;5.60;5.20;;;;;;;20.33;37.99;95362.69;6166052;28;102879;-80
2022/09/25 03:09:02;;;;;;;5.33;4.93;;;;;;;20.35;38.05;95362.41;6165661;28;103052;-80
2022/09/25 03:12:05;;;;;;;5.53;5.13;;;;;;;20.33;37.90;95368.00;6158106;28;103191;-80
2022/09/25 03:15:10;;;;;;;5.60;5.20;;;;;;;20.32;37.75;95369.06;6165299;28;104306;-80
2022/09/25 03:18:14;;;;;;;5.40;5.00;;;;;;;20.34;37.99;95368.81;6165296;28;103087;-80
2022/09/25 03:21:19;;;;;;;5.20;4.80;;;;;;;20.32;38.02;95361.88;6165854;28;103059;-80
2022/09/25 03:24:22;;;;;;;5.77;5.37;;;;;;;20.34;37.80;95356.31;6159585;28;104307;-80
2022/09/25 03:27:26;;;;;;;5.30;4.90;;;;;;;20.30;38.00;95357.94;6165529;28;103331;-80
2022/09/25 03:30:30;;;;;;;5.57;5.07;;;;;;;20.30;37.88;95349.97;6164904;28;106105;-80
2022/09/25 03:33:35;;;;;;;6.43;5.83;;;;;;;20.30;37.90;95353.41;6159528;28;104671;-81
2022/09/25 03:36:40;;;;;;;5.70;5.30;;;;;;;20.31;37.85;95338.25;6165017;28;105061;-81
2022/09/25 03:39:43;;;;;;;5.70;5.20;;;;;;;20.30;37.63;95348.09;6164953;28;103266;-80
2022/09/25 03:42:46;;;;;;;5.17;4.77;;;;;;;20.29;37.99;95340.41;6164927;28;103761;-80
2022/09/25 03:45:49;;;;;;;5.20;4.90;;;;;;;20.29;37.72;95346.53;6158122;28;103207;-80
2022/09/25 03:48:52;;;;;;;5.50;5.10;;;;;;;20.26;37.74;95347.09;6164694;28;103378;-80
2022/09/25 03:51:59;;;;;;;5.47;5.07;;;;;;;20.28;37.76;95354.78;6165366;28;105010;-80
2022/09/25 03:55:02;;;;;;;5.73;5.33;;;;;;;20.25;37.86;95356.16;6164657;28;103868;-80
2022/09/25 03:58:05;;;;;;;5.10;4.70;;;;;;;20.27;37.88;95356.66;6158115;28;105091;-81
2022/09/25 04:01:09;;;;;;;5.27;4.87;;;;;;;20.24;37.95;95351.91;6163541;28;106007;-80
2022/09/25 04:04:13;;;;;;;5.40;5.00;;;;;;;20.26;37.83;95357.72;6164714;28;102886;-81
2022/09/25 04:07:17;;;;;;;5.27;4.90;;;;;;;20.27;37.96;95369.16;6161794;28;104024;-80
2022/09/25 04:10:20;;;;;;;5.33;4.97;;;;;;;20.27;37.92;95377.91;6161608;28;103385;-81
2022/09/25 04:13:24;;;;;;;5.67;5.17;;;;;;;20.24;37.85;95367.84;6164844;28;106591;-81
2022/09/25 04:16:28;;;;;;;5.50;5.10;;;;;;;20.26;37.86;95378.97;6164702;28;102877;-81
2022/09/25 04:19:31;;;;;;;5.77;5.27;;;;;;;20.25;37.89;95381.94;6158079;28;104907;-80
2022/09/25 04:22:36;;;;;;;5.13;4.73;;;;;;;20.23;37.92;95376.09;6164612;28;102938;-81
2022/09/25 04:25:39;;;;;;;5.50;5.10;;;;;;;20.25;37.95;95374.75;6164369;28;103633;-80
2022/09/25 04:28:44;;;;;;;4.90;4.60;;;;;;;20.24;37.90;95377.66;6163679;28;103371;-79
2022/09/25 04:33:44;;;;;;;5.13;4.73;;;;;;;20.22;38.21;95391.22;6157276;28;105597;-80
2022/09/25 04:35:09;;;;;;;5.40;5.00;;;;;;;20.25;38.00;95384.59;6164096;28;103344;-80
2022/09/25 04:38:14;;;;;;;5.70;5.20;;;;;;;20.24;37.96;95385.63;6163923;28;103068;-79
2022/09/25 04:41:18;;;;;;;4.87;4.57;;;;;;;20.22;37.94;95377.16;6160624;28;103501;-80
2022/09/25 04:44:22;;;;;;;5.70;5.30;;;;;;;20.19;38.00;95385.72;6160580;28;104112;-80
2022/09/25 04:47:27;;;;;;;6.33;4.83;;;;;;;20.20;38.19;95379.31;6163954;28;103026;-80
2022/09/25 04:50:31;;;;;;;6.30;5.83;;;;;;;20.22;37.92;95377.94;6163967;28;104603;-79
2022/09/25 04:53:38;;;;;;;6.63;6.17;;;;;;;20.20;37.90;95369.47;6157784;28;105232;-80
2022/09/25 04:56:43;;;;;;;6.13;5.63;;;;;;;20.23;37.81;95363.59;6163631;28;103820;-80
2022/09/25 04:59:47;;;;;;;5.80;5.33;;;;;;;20.21;37.79;95368.41;6163864;28;106850;-79
2022/09/25 05:02:51;;;;;;;5.80;5.40;;;;;;;20.22;37.91;95369.19;6163382;28;104212;-80
2022/09/25 05:05:54;;;;;;;6.13;5.63;;;;;;;20.21;37.75;95372.91;6157436;28;104769;-80
2022/09/25 05:08:59;;;;;;;5.30;4.90;;;;;;;20.19;37.75;95383.84;6164300;28;103504;-80
2022/09/25 05:12:02;;;;;;;5.70;5.20;;;;;;;20.19;37.91;95381.19;6163827;28;103144;-80
2022/09/25 05:15:07;;;;;;;5.97;5.57;;;;;;;20.20;37.89;95382.75;6160850;28;103071;-79
2022/09/25 05:18:15;;;;;;;6.47;5.97;;;;;;;20.20;37.99;95384.63;6160607;28;103334;-80
2022/09/25 05:21:18;;;;;;;6.67;6.17;;;;;;;20.16;37.92;95381.72;6164275;28;103774;-79
2022/09/25 05:24:23;;;;;;;6.00;5.50;;;;;;;20.19;37.81;95375.88;6164457;28;105020;-80
2022/09/25 05:27:26;;;;;;;6.83;6.23;;;;;;;20.22;37.83;95374.50;6158606;28;104735;-81
2022/09/25 05:30:32;;;;;;;5.43;5.03;;;;;;;20.22;37.63;95372.63;6162806;28;103581;-80
2022/09/25 05:33:35;;;;;;;6.37;5.87;;;;;;;20.23;37.70;95368.13;6164756;28;106673;-78
2022/09/25 05:36:38;;;;;;;6.00;5.50;;;;;;;20.20;37.99;95369.47;6167876;28;103416;-79
2022/09/25 05:39:43;;;;;;;5.97;5.47;;;;;;;20.22;37.67;95361.22;6161934;28;103389;-79
2022/09/25 05:42:47;;;;;;;6.20;5.70;;;;;;;20.24;37.71;95364.38;6167478;28;102926;-80
2022/09/25 05:45:54;;;;;;;6.90;6.40;;;;;;;20.23;37.79;95368.13;6167578;28;103239;-80
2022/09/25 05:48:57;;;;;;;6.50;5.90;;;;;;;20.23;37.70;95371.56;6164750;28;103044;-77
2022/09/25 05:52:00;;;;;;;6.13;5.63;;;;;;;20.30;37.65;95377.31;6163969;28;103214;-79
2022/09/25 05:55:08;;;;;;;6.83;6.23;;;;;;;20.34;37.59;95388.22;6168517;28;105284;-78
2022/09/25 05:58:11;;;;;;;6.10;5.70;;;;;;;20.41;37.73;95398.47;6167810;28;104343;-80
2022/09/25 06:01:16;;;;;;;6.37;5.97;;;;;;;20.46;37.38;95393.06;6161686;28;103741;-80
2022/09/25 06:04:19;;;;;;;6.00;5.60;;;;;;;20.46;37.21;95379.78;6166489;28;105053;-80
2022/09/25 06:07:22;;;;;;;6.17;5.60;;;;;;;20.56;37.22;95379.66;6167707;28;107016;-80
2022/09/25 06:10:27;;;;;;;5.57;5.17;;;;;;;20.61;37.26;95380.38;6167286;28;104263;-81
2022/09/25 06:13:33;;;;;;;5.97;5.47;;;;;;;20.69;37.18;95370.97;6160856;28;106151;-79
2022/09/25 06:16:37;;;;;;;6.00;5.50;;;;;;;20.78;37.39;95379.06;6167431;28;103403;-79
2022/09/25 06:19:40;;;;;;;6.80;6.20;;;;;;;20.85;37.04;95382.97;6167433;28;103322;-79
2022/09/25 06:22:44;;;;;;;5.53;5.13;;;;;;;20.96;36.96;95386.25;6167034;28;103271;-80
2022/09/25 06:25:49;;;;;;;5.73;5.33;;;;;;;21.03;36.72;95377.91;6161384;28;103928;-81
2022/09/25 06:28:52;;;;;;;6.77;6.10;;;;;;;21.23;36.37;95385.59;6168094;28;102720;-80
2022/09/25 06:31:55;;;;;;;6.10;5.50;;;;;;;21.34;36.51;95376.38;6167403;28;103002;-80
2022/09/25 06:34:59;;;;;;;5.90;5.40;;;;;;;21.45;36.29;95377.75;6161459;28;103232;-79
2022/09/25 06:38:03;;;;;;;5.80;5.40;;;;;;;21.55;36.17;95384.00;6166245;28;105744;-80
2022/09/25 06:41:08;;;;;;;6.23;5.73;;;;;;;21.60;36.53;95386.56;6167469;28;103283;-79
2022/09/25 06:44:11;;;;;;;6.93;6.43;;;;;;;21.68;36.03;95383.22;6167173;28;103215;-80
2022/09/25 06:47:15;;;;;;;5.53;5.13;;;;;;;21.73;36.05;95397.25;6159869;28;104453;-81
2022/09/25 06:50:22;;;;;;;5.77;5.37;;;;;;;21.81;35.66;95396.53;6166323;28;103215;-81
2022/09/25 06:53:26;;;;;;;6.20;5.80;;;;;;;21.86;35.85;95387.72;6167381;28;103941;-80
2022/09/25 06:56:30;;;;;;;5.70;5.30;;;;;;;21.89;35.66;95389.78;6165815;28;103346;-80
2022/09/25 06:59:34;;;;;;;6.40;5.90;;;;;;;21.87;35.98;95388.50;6160821;28;103716;-80
2022/09/25 07:06:00;;;;;;;6.13;5.63;;;;;;;21.95;36.01;95377.94;6168250;28;103377;-80
2022/09/25 07:09:05;;;;;;;6.53;5.93;;;;;;;21.96;35.85;95382.19;6163307;28;103577;-80
2022/09/25 07:12:11;;;;;;;5.90;5.50;;;;;;;21.97;36.11;95381.09;6167692;28;103030;-80
2022/09/25 07:15:15;;;;;;;5.90;5.50;;;;;;;22.06;36.31;95389.97;6167871;28;104393;-80
2022/09/25 07:18:18;;;;;;;5.93;5.50;;;;;;;22.10;36.32;95400.84;6167750;28;106349;-79
2022/09/25 07:21:23;;;;;;;6.50;6.00;;;;;;;22.20;36.21;95400.66;6160762;28;104165;-80
2022/09/25 07:24:28;;;;;;;6.23;5.70;;;;;;;22.29;36.20;95408.72;6168363;28;105046;-80
2022/09/25 07:27:32;;;;;;;6.83;6.13;;;;;;;22.22;35.43;95405.69;6166994;28;103854;-80
2022/09/25 07:30:36;;;;;;;6.10;5.60;;;;;;;22.18;36.03;95412.66;6166582;28;103061;-81
2022/09/25 07:33:39;;;;;;;5.80;5.30;;;;;;;22.20;35.95;95407.84;6160014;28;103710;-81
2022/09/25 07:36:45;;;;;;;5.60;5.20;;;;;;;22.21;36.08;95412.09;6166123;28;103696;-81
2022/09/25 07:39:48;;;;;;;5.80;5.40;;;;;;;22.22;36.01;95400.34;6166909;28;103084;-81
2022/09/25 07:42:53;;;;;;;6.10;5.70;;;;;;;22.36;36.17;95399.25;6163429;28;103237;-79
2022/09/25 07:45:58;;;;;;;6.67;6.07;;;;;;;22.38;35.93;95386.41;6164659;28;102833;-80
2022/09/25 07:49:01;;;;;;;6.20;5.70;;;;;;;22.39;35.77;95384.53;6166645;28;102744;-80
2022/09/25 07:52:07;;;;;;;6.93;6.40;;;;;;;22.38;36.08;95383.72;6165710;28;103547;-79
2022/09/25 07:55:10;;;;;;;6.30;5.80;;;;;;;22.41;36.25;95367.13;6158069;28;103642;-80
2022/09/25 07:58:18;;;;;;;6.47;5.97;;;;;;;22.39;35.88;95363.19;6166472;28;103428;-79
2022/09/25 08:01:21;;;;;;;6.30;5.87;;;;;;;22.39;35.77;95355.19;6165998;28;103490;-80
2022/09/25 08:04:25;;;;;;;6.93;6.43;;;;;;;22.46;35.78;95352.88;6165125;28;102998;-80
2022/09/25 08:07:28;;;;;;;6.87;6.37;;;;;;;22.42;36.42;95349.25;6157767;28;103607;-80
2022/09/25 08:10:32;;;;;;;7.40;6.80;;;;;;;22.47;36.05;95349.13;6164458;28;105962;-81
2022/09/25 08:13:37;;;;;;;7.10;6.50;;;;;;;22.44;36.07;95352.41;6164667;28;103079;-80
2022/09/25 08:16:41;;;;;;;6.50;6.00;;;;;;;22.49;36.21;95346.94;6162694;28;104653;-79
2022/09/25 08:19:44;;;;;;;6.40;5.90;;;;;;;22.53;36.31;95350.63;6161430;28;104517;-81
2022/09/25 08:22:47;;;;;;;6.70;6.20;;;;;;;22.61;36.01;95360.59;6164617;28;103430;-81
2022/09/25 08:25:51;;;;;;;8.10;7.50;;;;;;;22.60;36.14;95348.34;6164483;28;104212;-80
2022/09/25 08:28:56;;;;;;;6.77;6.17;;;;;;;22.57;35.87;95345.50;6158997;28;103223;-80
2022/09/25 08:32:00;;;;;;;6.20;5.80;;;;;;;22.62;36.38;95330.16;6164484;28;104127;-80
2022/09/25 08:35:04;;;;;;;7.13;6.63;;;;;;;22.62;36.20;95327.50;6164273;28;103092;-78
2022/09/25 08:38:08;;;;;;;7.20;6.60;;;;;;;22.64;36.18;95322.63;6163500;28;103496;-80
2022/09/25 08:41:16;;;;;;;7.40;6.90;;;;;;;22.64;36.02;95313.84;6157102;28;103705;-80
2022/09/25 08:44:27;;;;;;;7.20;6.60;;;;;;;22.65;36.32;95320.75;6165004;28;103581;-79
2022/09/25 08:50:52;;;;;;;6.87;6.37;;;;;;;22.65;35.94;95326.09;6161379;28;105898;-80
2022/09/25 08:53:55;;;;;;;7.70;7.00;;;;;;;22.67;36.05;95319.38;6161479;28;104931;-80
2022/09/25 08:57:02;;;;;;;6.70;6.20;;;;;;;22.69;36.23;95319.09;6164413;28;103140;-80
2022/09/25 09:00:14;;;;;;;7.10;6.50;;;;;;;22.67;36.43;95322.03;6165035;28;103039;-79
2022/09/25 09:03:18;;;;;;;6.77;6.27;;;;;;;22.66;36.06;95323.13;6157021;28;103559;-80
2022/09/25 09:06:24;;;;;;;7.00;6.50;;;;;;;22.66;35.91;95311.66;6164308;28;105312;-80
2022/09/25 09:09:31;;;;;;;6.77;6.27;;;;;;;22.66;35.88;95323.13;6162162;28;103365;-80
2022/09/25 09:12:38;;;;;;;7.30;6.80;;;;;;;22.68;36.02;95307.63;6164205;28;102885;-82
2022/09/25 09:15:46;;;;;;;7.57;6.97;;;;;;;22.64;36.08;95300.50;6157895;28;103359;-80
2022/09/25 09:18:50;;;;;;;7.40;6.90;;;;;;;22.65;36.30;95289.53;6164518;28;105182;-81
2022/09/25 09:22:02;;;;;;;7.47;6.90;;;;;;;22.65;36.33;95284.19;6163878;28;103228;-80
2022/09/25 09:25:27;;;;;;;7.40;6.80;;;;;;;22.63;36.45;95281.06;6160035;28;103326;-80
2022/09/25 09:28:53;;;;;;;6.70;6.20;;;;;;;22.61;36.24;95274.44;6163727;28;103247;-80
2022/09/25 09:32:12;;;;;;;7.30;6.70;;;;;;;22.61;36.54;95274.44;6163750;28;103371;-80
2022/09/25 09:35:27;;;;;;;7.30;6.80;;;;;;;22.58;36.39;95267.84;6163965;28;103823;-80
2022/09/25 09:38:47;;;;;;;6.40;5.90;;;;;;;22.53;36.52;95275.94;6156484;28;103402;-78
2022/09/25 09:42:00;;;;;;;8.40;7.70;;;;;;;22.32;36.58;95267.59;6138680;28;103147;-80
2022/09/25 09:45:16;;;;;;;10.53;9.63;;;;;;;22.19;35.79;95260.47;6139096;28;102895;-81
2022/09/25 09:48:31;;;;;;;11.53;10.53;;;;;;;22.21;35.44;95265.47;6133967;28;103812;-80
2022/09/25 09:51:39;;;;;;;11.73;10.73;;;;;;;22.20;34.76;95263.91;6139666;28;103064;-80
2022/09/25 09:54:49;;;;;;;12.73;10.93;;;;;;;22.07;34.96;95258.31;6139134;28;103970;-82
2022/09/25 09:57:55;;;;;;;11.57;10.47;;;;;;;22.15;34.95;95259.47;6145650;28;106302;-79
2022/09/25 10:00:59;;;;;;;10.87;9.87;;;;;;;22.07;35.01;95254.84;6156495;28;103364;-80
2022/09/25 10:04:30;;;;;;;11.40;10.10;;;;;;;22.00;34.97;95254.47;6163476;28;104604;-80
2022/09/25 10:07:36;;;;;;;14.20;11.03;;;;;;;22.05;35.70;95249.03;6162765;28;103149;-80
2022/09/25 10:10:43;;;;;;;12.83;10.87;;;;;;;22.00;34.95;95236.59;6155906;28;103110;-79
2022/09/25 10:13:47;;;;;;;11.83;10.73;;;;;;;22.06;35.20;95242.63;6161215;28;106077;-80
2022/09/25 10:16:52;;;;;;;13.50;11.47;;;;;;;22.07;36.03;95242.31;6163204;28;103269;-80
2022/09/25 10:20:01;;;;;;;12.70;11.50;;;;;;;22.09;36.11;95242.78;6139936;28;103348;-77
2022/09/25 10:23:06;;;;;;;13.23;11.87;;;;;;;22.03;36.64;95236.00;6136367;28;107488;-80
2022/09/25 10:26:34;;;;;;;13.00;10.93;;;;;;;22.03;37.56;95237.91;6142371;28;103425;-80
2022/09/25 10:29:38;;;;;;;17.83;10.80;;;;;;;22.02;37.57;95229.09;6143092;28;103140;-82
2022/09/25 10:32:44;;;;;;;15.67;11.67;;;;;;;22.04;37.56;95228.81;6140365;28;103654;-81
2022/09/25 10:35:53;;;;;;;14.90;10.90;;;;;;;22.04;37.85;95221.59;6139282;28;105193;-81
2022/09/25 10:38:57;;;;;;;13.20;11.40;;;;;;;22.03;37.93;95216.56;6142436;28;103299;-81
2022/09/25 10:42:38;;;;;;;15.83;10.90;;;;;;;22.00;37.74;95201.94;6142161;28;102946;-80
2022/09/25 10:45:42;;;;;;;13.33;11.77;;;;;;;21.98;37.51;95198.00;6158637;28;103055;-81
2022/09/25 10:52:09;;;;;;;12.60;11.50;;;;;;;21.97;37.42;95202.56;6165851;28;104105;-78
2022/09/25 10:55:15;;;;;;;14.50;11.03;;;;;;;21.97;37.28;95201.78;6165447;28;103322;-81
2022/09/25 10:58:23;;;;;;;12.40;11.20;;;;;;;21.97;37.09;95191.13;6163695;28;105184;-80
2022/09/25 11:01:33;;;;;;;13.03;11.70;;;;;;;21.93;37.28;95193.59;6167702;28;104349;-81
2022/09/25 11:04:37;;;;;;;12.73;11.00;;;;;;;21.92;37.42;95191.22;6167316;28;103376;-80
2022/09/25 11:08:02;;;;;;;13.30;11.67;;;;;;;21.92;37.18;95189.34;6163226;28;103051;-82
2022/09/25 11:11:08;;;;;;;12.73;11.50;;;;;;;21.89;37.67;95186.50;6170032;28;105219;-80
2022/09/25 11:14:21;;;;;;;12.97;11.67;;;;;;;21.88;37.65;95188.38;6167150;28;103089;-79
2022/09/25 11:17:32;;;;;;;13.67;12.37;;;;;;;21.87;37.19;95178.81;6167186;28;103634;-78
2022/09/25 11:20:38;;;;;;;13.07;11.67;;;;;;;21.87;37.24;95176.16;6160527;28;103378;-78
2022/09/25 11:23:58;;;;;;;13.60;12.13;;;;;;;21.83;37.69;95169.03;6142437;28;105525;-77
2022/09/25 11:27:10;;;;;;;13.20;12.10;;;;;;;21.84;37.59;95173.28;6142395;28;103126;-79
2022/09/25 11:30:16;;;;;;;16.70;15.10;;;;;;;21.82;37.99;95173.59;6134738;28;103552;-79
2022/09/25 11:33:27;;;;;;;17.33;15.50;;;;;;;21.83;38.22;95164.50;6141572;28;107069;-77
2022/09/25 11:36:36;;;;;;;17.87;16.07;;;;;;;21.80;37.79;95162.41;6141064;28;103484;-78
2022/09/25 11:43:10;;;;;;;19.50;15.10;;;;;;;21.74;38.00;95158.31;6133358;28;105119;-78
2022/09/25 11:46:22;;;;;;;16.20;14.50;;;;;;;21.75;38.72;95157.22;6140421;28;103543;-77
2022/09/25 11:49:30;;;;;;;17.00;15.57;;;;;;;21.70;38.40;95147.47;6139626;28;102945;-78
2022/09/25 11:52:39;;;;;;;17.87;16.13;;;;;;;21.76;38.88;95148.13;6156773;28;103045;-76
2022/09/25 11:56:02;;;;;;;20.23;18.13;;;;;;;21.78;38.75;95141.41;6161074;28;103106;-76
2022/09/25 11:59:24;;;;;;;20.63;18.83;;;;;;;21.77;39.02;95139.84;6164155;28;104079;-77
2022/09/25 12:02:39;;;;;;;22.20;19.53;;;;;;;21.76;39.58;95132.94;6164458;28;103820;-78
2022/09/25 12:06:01;;;;;;;20.80;18.80;;;;;;;21.69;38.99;95121.13;6157290;28;103617;-78
2022/09/25 12:09:22;;;;;;;20.70;18.70;;;;;;;21.67;39.20;95120.63;6164302;28;106531;-76
2022/09/25 12:12:34;;;;;;;21.90;19.63;;;;;;;21.63;39.27;95125.75;6164258;28;103074;-76
2022/09/25 12:15:51;;;;;;;23.07;20.77;;;;;;;21.64;39.71;95115.91;6158126;28;103596;-75
2022/09/25 12:19:26;;;;;;;22.23;20.23;;;;;;;21.64;39.85;95107.91;6163812;28;103603;-78
2022/09/25 12:22:43;;;;;;;22.83;20.53;;;;;;;21.63;39.88;95117.00;6150978;28;103247;-77
2022/09/25 12:26:05;;;;;;;24.33;21.83;;;;;;;21.68;40.40;95108.91;6139097;28;103601;-78
2022/09/25 12:29:24;;;;;;;23.33;20.80;;;;;;;21.69;41.28;95105.16;6153233;28;105376;-78
2022/09/25 12:32:41;;;;;;;19.97;18.20;;;;;;;21.67;41.39;95094.78;6163576;28;103187;-76
2022/09/25 12:35:53;;;;;;;22.43;20.03;;;;;;;21.68;41.53;95088.38;6163378;28;104607;-76
2022/09/25 12:39:03;;;;;;;23.03;20.67;;;;;;;21.68;41.65;95093.72;6156605;28;103105;-77
2022/09/25 12:42:15;;;;;;;22.93;20.67;;;;;;;21.69;41.72;95084.63;6163216;28;103191;-77
2022/09/25 12:45:25;;;;;;;22.87;20.67;;;;;;;21.71;41.91;95092.31;6163157;28;106070;-77
2022/09/25 12:48:34;;;;;;;24.77;22.67;;;;;;;21.66;41.47;95082.56;6163857;28;103031;-76
2022/09/25 12:51:41;;;;;;;22.87;20.73;;;;;;;21.64;42.06;95081.28;6157698;28;104772;-77
2022/09/25 12:54:53;;;;;;;23.97;21.67;;;;;;;21.64;42.19;95079.41;6162233;28;103923;-76
2022/09/25 12:58:05;;;;;;;23.97;21.77;;;;;;;21.65;42.25;95070.31;6163392;28;102899;-75
2022/09/25 13:01:19;;;;;;;24.13;21.80;;;;;;;21.68;41.65;95063.63;6158530;28;103441;-77
2022/09/25 13:04:40;;;;;;;25.17;22.97;;;;;;;21.71;41.59;95053.16;6163412;28;103452;-76
2022/09/25 13:07:49;;;;;;;27.40;24.80;;;;;;;21.72;41.49;95060.06;6164389;28;103394;-76
2022/09/25 13:10:58;;;;;;;25.80;23.50;;;;;;;21.75;41.69;95048.00;6162160;28;103063;-77
2022/09/25 13:14:03;;;;;;;27.37;24.47;;;;;;;21.73;41.72;95042.97;6157558;28;104558;-77
2022/09/25 13:17:10;;;;;;;25.83;23.50;;;;;;;21.75;41.36;95035.47;6163867;28;103349;-77
2022/09/25 13:20:42;;;;;;;24.30;22.20;;;;;;;21.74;41.73;95031.25;6163224;28;103122;-76
2022/09/25 13:23:50;;;;;;;24.97;22.67;;;;;;;21.74;41.29;95027.78;6160008;28;104542;-77
2022/09/25 13:26:56;;;;;;;24.53;22.37;;;;;;;21.75;41.64;95024.81;6157916;28;103815;-77
2022/09/25 13:30:01;;;;;;;26.03;23.73;;;;;;;21.75;41.88;95019.50;6163247;28;104393;-76
2022/09/25 13:33:21;;;;;;;26.23;23.80;;;;;;;21.76;41.57;95020.28;6163080;28;103043;-77
2022/09/25 13:36:39;;;;;;;26.77;24.23;;;;;;;21.75;42.01;95022.16;6150487;28;103095;-78
2022/09/25 13:43:18;;;;;;;25.97;23.30;;;;;;;21.79;41.72;95019.66;6144334;28;103852;-79
2022/09/25 13:46:26;;;;;;;26.70;24.27;;;;;;;21.74;41.87;95012.59;6163376;28;103585;-78
2022/09/25 13:49:35;;;;;;;25.63;23.33;;;;;;;21.71;41.61;95015.09;6157691;28;103647;-77
2022/09/25 13:53:16;;;;;;;25.17;22.67;;;;;;;21.67;41.44;95006.88;6163652;28;103988;-78
2022/09/25 13:56:47;;;;;;;24.00;21.60;;;;;;;21.75;41.42;94994.72;6165238;28;104402;-78
2022/09/25 14:00:04;;;;;;;23.20;21.03;;;;;;;21.81;42.23;94988.97;6159499;28;102943;-80
2022/09/25 14:03:30;;;;;;;23.70;21.60;;;;;;;21.80;41.63;94989.28;6164251;28;103624;-79
2022/09/25 14:06:37;;;;;;;25.10;22.73;;;;;;;21.80;42.16;94989.28;6177075;28;104497;-79
2022/09/25 14:09:46;;;;;;;24.33;22.00;;;;;;;21.82;42.35;94992.44;6161790;28;104814;-79
2022/09/25 14:12:52;;;;;;;22.70;20.60;;;;;;;21.88;41.97;94988.59;6162104;28;103410;-78
2022/09/25 14:16:01;;;;;;;22.30;20.20;;;;;;;21.86;42.44;94993.44;6165356;28;104986;-78
2022/09/25 14:19:07;;;;;;;23.13;20.57;;;;;;;21.83;41.91;94986.03;6162408;28;103070;-77
2022/09/25 14:22:20;;;;;;;22.20;19.60;;;;;;;21.89;42.22;94984.03;6157150;28;105468;-78
2022/09/25 14:25:27;;;;;;;24.43;20.50;;;;;;;21.85;42.36;94981.19;6169842;28;103324;-78
2022/09/25 14:28:32;;;;;;;24.17;21.67;;;;;;;21.84;42.09;94979.59;6164281;28;103298;-78
2022/09/25 14:31:46;;;;;;;32.37;26.03;;;;;;;21.86;42.20;94977.44;6164391;28;103786;-77
2022/09/25 14:35:08;;;;;;;30.40;26.97;;;;;;;21.89;42.29;94984.03;6141795;28;103677;-79
2022/09/25 14:38:35;;;;;;;42.90;35.07;;;;;;;21.87;42.12;94989.69;6156641;28;103676;-78
2022/09/25 14:41:54;;;;;;;44.60;36.70;;;;;;;21.91;41.98;94982.63;6160532;28;105643;-78
2022/09/25 14:45:21;;;;;;;44.93;36.50;;;;;;;21.90;42.00;94980.28;6159686;28;103642;-78
2022/09/25 14:48:28;;;;;;;46.67;36.10;;;;;;;21.90;42.09;94986.41;6156744;28;103848;-78
2022/09/25 14:51:39;;;;;;;46.50;34.30;;;;;;;21.84;42.15;94979.59;6160688;28;103729;-78
2022/09/25 14:54:46;;;;;;;38.20;31.20;;;;;;;21.87;41.95;94986.22;6160451;28;104147;-78